Charles Darwin — GDLS — position and weather

sailwx.info

Track history (hours):
 
Tides and Currents Weather Stations Pressure Air Temp Water Temp Dewpoint Dewpoint Depression Visibility Wind Speed Wind Dir Waves Ship Positions

Oceanographic research ship Charles Darwin (UK)

Detailed information on ship capabilities available from University of Delaware's Ocean Information Center.

Last reported at 2019-Oct-16 12:30 UTC. Time now 2019-Oct-18 23:38 UTC.
Position N 39°12' W 074°13'.

Length 70 m; draft 5.7 m.

Type: Cargo ship. MMSI: 235011460.

Date/timePositionNaut miles runAvg speedWind from/ knotsBaromVisibWave heightAir tempDewpointWater temp
2019-Oct-16 12:30N 39°12' W 074°13'4 0.1
2019-Oct-15 09:22N 39°10' W 074°10'1 3.7
2019-Oct-15 09:00N 39°09' W 074°09'3 1.4
2019-Oct-15 06:30N 39°12' W 074°11'2 2.9
2019-Oct-15 05:53N 39°13' W 074°13'1 1.3
2019-Oct-15 05:29N 39°13' W 074°12'1 2.9
2019-Oct-15 05:00N 39°12' W 074°11'2 3.0
2019-Oct-15 04:30N 39°11' W 074°10'1 2.9
2019-Oct-15 04:00N 39°10' W 074°08'1 2.9
2019-Oct-15 03:30N 39°09' W 074°07'1 2.2
2019-Oct-15 02:59N 39°08' W 074°06'1 2.1
2019-Oct-15 02:30N 39°08' W 074°08'1 1.9
2019-Oct-15 02:00N 39°09' W 074°08'1 2.2
2019-Oct-15 01:30N 39°10' W 074°10'1 3.0
2019-Oct-15 01:00N 39°11' W 074°11'4 2.2
2019-Oct-14 23:21N 39°13' W 074°14'1 3.5
2019-Oct-14 22:59N 39°12' W 074°13'22 1.2
2019-Oct-14 04:45N 39°31' W 073°59'3 8.9
2019-Oct-14 04:26N 39°34' W 073°57'4 9.1
2019-Oct-14 04:00N 39°37' W 073°55'5 9.4
2019-Oct-14 03:30N 39°41' W 073°52'5 9.3
2019-Oct-14 03:00N 39°46' W 073°50'5 9.3
2019-Oct-14 02:30N 39°50' W 073°49'49 8.0
2019-Oct-13 20:25N 40°38' W 074°03'2 0.1
2019-Oct-13 06:33N 40°40' W 074°04'0 0.1
2019-Oct-13 06:27N 40°40' W 074°04'0 0.0
2019-Oct-13 06:00N 40°40' W 074°04'0 0.0
2019-Oct-13 05:27N 40°40' W 074°04'0 0.0
2019-Oct-13 05:00N 40°40' W 074°04'0 0.0
2019-Oct-13 04:30N 40°40' W 074°04'0 0.0
2019-Oct-13 03:57N 40°40' W 074°04'0 0.0
2019-Oct-13 03:30N 40°40' W 074°04'0 0.0
2019-Oct-13 03:00N 40°40' W 074°04'0 0.0
2019-Oct-13 02:30N 40°40' W 074°04'0 0.0
2019-Oct-13 02:00N 40°40' W 074°04'0 0.0
2019-Oct-13 01:30N 40°40' W 074°04'0 0.0
2019-Oct-13 01:00N 40°40' W 074°04'0 0.0
2019-Oct-13 00:30N 40°40' W 074°04'0 0.0
2019-Oct-13 00:00N 40°40' W 074°04'0 0.0
2019-Oct-12 23:24N 40°40' W 074°04'0 0.0
2019-Oct-12 22:36N 40°40' W 074°04'0 0.0
2019-Oct-12 08:27N 40°40' W 074°04'0 0.0
2019-Oct-12 08:00N 40°40' W 074°04'0 0.0
2019-Oct-12 07:30N 40°40' W 074°04'0 0.0
2019-Oct-12 07:00N 40°40' W 074°04'0 0.0
2019-Oct-12 06:30N 40°40' W 074°04'0 0.0
2019-Oct-12 05:57N 40°40' W 074°04'0 0.0
2019-Oct-12 05:30N 40°40' W 074°04'0 0.0
2019-Oct-12 05:00N 40°40' W 074°04'0 0.0
2019-Oct-12 04:30N 40°40' W 074°04'0 0.0
2019-Oct-12 04:00N 40°40' W 074°04'0 0.0
2019-Oct-12 03:30N 40°40' W 074°04'0 0.0
2019-Oct-12 03:00N 40°40' W 074°04'0 0.0
2019-Oct-12 02:30N 40°40' W 074°04'0 0.0
2019-Oct-12 02:00N 40°40' W 074°04'0 0.0
2019-Oct-12 01:30N 40°40' W 074°04'0 0.0
2019-Oct-12 01:00N 40°40' W 074°04'0 0.0
2019-Oct-12 00:30N 40°40' W 074°04'0 0.0
2019-Oct-11 23:57N 40°40' W 074°04'0 0.0
2019-Oct-11 23:30N 40°40' W 074°04'0 0.0
2019-Oct-11 23:00N 40°40' W 074°04'0 0.0
2019-Oct-11 22:27N 40°40' W 074°04'0 0.0
2019-Oct-11 22:00N 40°40' W 074°04'0 0.0
2019-Oct-11 21:30N 40°40' W 074°04'0 0.0
2019-Oct-11 20:54N 40°40' W 074°04'0 0.0
2019-Oct-11 20:30N 40°40' W 074°04'0 0.0
2019-Oct-11 20:00N 40°40' W 074°04'0 0.0
2019-Oct-11 19:30N 40°40' W 074°04'0 0.0
2019-Oct-11 19:00N 40°40' W 074°04'0 0.0
2019-Oct-11 18:30N 40°40' W 074°04'0 0.0
2019-Oct-11 18:00N 40°40' W 074°04'0 0.0
2019-Oct-11 17:30N 40°40' W 074°04'0 0.0
2019-Oct-11 17:00N 40°40' W 074°04'0 0.0
2019-Oct-11 16:27N 40°40' W 074°04'0 0.0
2019-Oct-11 16:00N 40°40' W 074°04'0 0.0
2019-Oct-11 15:30N 40°40' W 074°04'0 0.0
2019-Oct-11 15:00N 40°40' W 074°04'0 0.0
2019-Oct-11 14:30N 40°40' W 074°04'0 0.0
2019-Oct-11 14:00N 40°40' W 074°04'0 0.0
2019-Oct-11 13:30N 40°40' W 074°04'0 0.0
2019-Oct-11 12:57N 40°40' W 074°04'0 0.0
2019-Oct-11 12:30N 40°40' W 074°04'0 0.0
2019-Oct-11 12:00N 40°40' W 074°04'0 0.0
2019-Oct-11 11:30N 40°40' W 074°04'0 0.0
2019-Oct-11 11:00N 40°40' W 074°04'0 0.0
2019-Oct-11 10:30N 40°40' W 074°04'0 0.0
2019-Oct-11 10:00N 40°40' W 074°04'0 0.0
2019-Oct-11 09:30N 40°40' W 074°04'0 0.0
2019-Oct-11 09:00N 40°40' W 074°04'0 0.0
2019-Oct-11 08:30N 40°40' W 074°04'0 0.0
2019-Oct-11 08:00N 40°40' W 074°04'0 0.0
2019-Oct-11 07:30N 40°40' W 074°04'0 0.0
2019-Oct-11 07:00N 40°40' W 074°04'0 0.0
2019-Oct-11 06:30N 40°40' W 074°04'0 0.0
2019-Oct-11 06:00N 40°40' W 074°04'0 0.0
2019-Oct-11 05:30N 40°40' W 074°04'0 0.0
2019-Oct-11 05:00N 40°40' W 074°04'0 0.0
2019-Oct-11 04:30N 40°40' W 074°04'0 0.0
2019-Oct-11 04:00N 40°40' W 074°04'0 0.0
2019-Oct-11 03:27N 40°40' W 074°04'0 0.0
2019-Oct-11 03:00N 40°40' W 074°04'0 0.0
2019-Oct-11 02:30N 40°40' W 074°04'0 0.0
2019-Oct-11 02:00N 40°40' W 074°04'0 0.0
2019-Oct-11 01:30N 40°40' W 074°04'0 0.0
2019-Oct-11 01:00N 40°40' W 074°04'0 0.0
2019-Oct-11 00:30N 40°40' W 074°04'0 0.0
2019-Oct-11 00:00N 40°40' W 074°04'0 0.0
2019-Oct-10 23:30N 40°40' W 074°04'0 0.0
2019-Oct-10 23:00N 40°40' W 074°04'0 0.0
2019-Oct-10 22:30N 40°40' W 074°04'0 0.0
2019-Oct-10 22:00N 40°40' W 074°04'0 0.0
2019-Oct-10 21:27N 40°40' W 074°04'0 0.0
2019-Oct-10 21:00N 40°40' W 074°04'0 0.0
2019-Oct-10 20:30N 40°40' W 074°04'0 0.0
2019-Oct-10 20:00N 40°40' W 074°04'0 0.0
2019-Oct-10 19:30N 40°40' W 074°04'0 0.0
2019-Oct-10 18:57N 40°40' W 074°04'0 0.0
2019-Oct-10 18:30N 40°40' W 074°04'0 0.0
2019-Oct-10 18:00N 40°40' W 074°04'0 0.0
2019-Oct-10 17:27N 40°40' W 074°04'0 0.0
2019-Oct-10 17:00N 40°40' W 074°04'0 0.0
2019-Oct-10 16:30N 40°40' W 074°04'0 0.0
2019-Oct-10 16:00N 40°40' W 074°04'0 0.0
2019-Oct-10 15:24N 40°40' W 074°04'0 0.0
2019-Oct-10 15:00N 40°40' W 074°04'0 0.0
2019-Oct-10 14:30N 40°40' W 074°04'0 0.0
2019-Oct-10 14:00N 40°40' W 074°04'0 0.0
2019-Oct-10 13:30N 40°40' W 074°04'0 0.0
2019-Oct-10 13:00N 40°40' W 074°04'0 0.0
2019-Oct-10 12:30N 40°40' W 074°04'0 0.0
2019-Oct-10 11:57N 40°40' W 074°04'0 0.0
2019-Oct-10 11:30N 40°40' W 074°04'0 0.0
2019-Oct-10 11:00N 40°40' W 074°04'0 0.0
2019-Oct-10 10:30N 40°40' W 074°04'0 0.0
2019-Oct-10 10:00N 40°40' W 074°04'0 0.0
2019-Oct-10 09:27N 40°40' W 074°04'0 0.0
2019-Oct-10 09:00N 40°40' W 074°04'0 0.0
2019-Oct-10 08:30N 40°40' W 074°04'0 0.0
2019-Oct-10 08:00N 40°40' W 074°04'0 0.0
2019-Oct-10 07:30N 40°40' W 074°04'0 0.0
2019-Oct-10 07:00N 40°40' W 074°04'0 0.0
2019-Oct-10 06:30N 40°40' W 074°04'0 0.0
2019-Oct-10 06:00N 40°40' W 074°04'0 0.0
2019-Oct-10 05:30N 40°40' W 074°04'0 0.0
2019-Oct-10 05:00N 40°40' W 074°04'0 0.0
2019-Oct-10 04:30N 40°40' W 074°04'0 0.0
2019-Oct-10 04:00N 40°40' W 074°04'0 0.0
2019-Oct-10 03:30N 40°40' W 074°04'0 0.0
2019-Oct-10 03:00N 40°40' W 074°04'0 0.0
2019-Oct-10 02:30N 40°40' W 074°04'0 0.0
2019-Oct-10 02:00N 40°40' W 074°04'0 0.0
2019-Oct-10 01:30N 40°40' W 074°04'0 0.0
2019-Oct-10 01:00N 40°40' W 074°04'0 0.0
2019-Oct-10 00:24N 40°40' W 074°04'0 0.0
2019-Oct-10 00:00N 40°40' W 074°04'0 0.0
2019-Oct-09 23:30N 40°40' W 074°04'0 0.0
2019-Oct-09 23:00N 40°40' W 074°04'0 0.0
2019-Oct-09 22:30N 40°40' W 074°04'0 0.0
2019-Oct-09 22:00N 40°40' W 074°04'0 0.0
2019-Oct-09 21:30N 40°40' W 074°04'0 0.0
2019-Oct-09 21:00N 40°40' W 074°04'0 0.0
2019-Oct-09 20:27N 40°40' W 074°04'0 0.0
2019-Oct-09 20:00N 40°40' W 074°04'0 0.0
2019-Oct-09 19:30N 40°40' W 074°04'0 0.1
2019-Oct-09 19:00N 40°40' W 074°04'0 0.1
2019-Oct-09 18:30N 40°40' W 074°04'0 0.0
2019-Oct-09 18:00N 40°40' W 074°04'0 0.0
2019-Oct-09 17:27N 40°40' W 074°04'0 0.0
2019-Oct-09 17:00N 40°40' W 074°04'0 0.0
2019-Oct-09 16:30N 40°40' W 074°04'0 0.0
2019-Oct-09 16:00N 40°40' W 074°04'0 0.0
2019-Oct-09 15:30N 40°40' W 074°04'0 0.0
2019-Oct-09 15:00N 40°40' W 074°04'0 0.0
2019-Oct-09 14:30N 40°40' W 074°04'0 0.0
2019-Oct-09 14:00N 40°40' W 074°04'0 0.0
2019-Oct-09 13:30N 40°40' W 074°04'0 0.0
2019-Oct-09 13:00N 40°40' W 074°04'0 0.0
2019-Oct-09 12:27N 40°40' W 074°04'0 0.0
2019-Oct-09 12:00N 40°40' W 074°04'0 0.0
2019-Oct-09 11:30N 40°40' W 074°04'0 0.0
2019-Oct-09 11:00N 40°40' W 074°04'0 0.0
2019-Oct-09 10:30N 40°40' W 074°04'0 0.0
2019-Oct-09 10:00N 40°40' W 074°04'0 0.0
2019-Oct-09 09:30N 40°40' W 074°04'0 0.0
2019-Oct-09 09:00N 40°40' W 074°04'0 0.0
2019-Oct-09 08:30N 40°40' W 074°04'0 0.0
2019-Oct-09 08:00N 40°40' W 074°04'0 0.0
2019-Oct-09 07:30N 40°40' W 074°04'0 0.0
2019-Oct-09 07:00N 40°40' W 074°04'0 0.0
2019-Oct-09 06:30N 40°40' W 074°04'0 0.0
2019-Oct-09 06:00N 40°40' W 074°04'0 0.0
2019-Oct-09 05:30N 40°40' W 074°04'0 0.0
2019-Oct-09 05:00N 40°40' W 074°04'0 0.0
2019-Oct-09 04:30N 40°40' W 074°04'0 0.0
2019-Oct-09 04:00N 40°40' W 074°04'0 0.0
2019-Oct-09 03:30N 40°40' W 074°04'0 0.0
2019-Oct-09 03:00N 40°40' W 074°04'0 0.0
2019-Oct-09 02:30N 40°40' W 074°04'0 0.0
2019-Oct-09 02:00N 40°40' W 074°04'0 0.0
2019-Oct-09 01:30N 40°40' W 074°04'0 0.0
2019-Oct-09 01:00N 40°40' W 074°04'0 0.0
2019-Oct-09 00:30N 40°40' W 074°04'0 0.0
2019-Oct-09 00:00N 40°40' W 074°04'0 0.0
2019-Oct-08 23:30N 40°40' W 074°04'0 0.0
2019-Oct-08 23:00N 40°40' W 074°04'0 0.0
2019-Oct-08 22:30N 40°40' W 074°04'0 0.0
2019-Oct-08 21:54N 40°40' W 074°04'0 0.0
2019-Oct-08 21:30N 40°40' W 074°04'0 0.0
2019-Oct-08 21:00N 40°40' W 074°04'0 0.0
2019-Oct-08 20:30N 40°40' W 074°04'0 0.0
2019-Oct-08 20:00N 40°40' W 074°04'0 0.0
2019-Oct-08 19:30N 40°40' W 074°04'0 0.0
2019-Oct-08 19:00N 40°40' W 074°04'0 0.0
2019-Oct-08 18:27N 40°40' W 074°04'0 0.0
2019-Oct-08 18:00N 40°40' W 074°04'0 0.0
2019-Oct-08 17:30N 40°40' W 074°04'0 0.0
2019-Oct-08 17:00N 40°40' W 074°04'0 0.0
2019-Oct-08 16:27N 40°40' W 074°04'0 0.0
2019-Oct-08 15:57N 40°40' W 074°04'0 0.0
2019-Oct-08 15:30N 40°40' W 074°04'0 0.0
2019-Oct-08 15:00N 40°40' W 074°04'0 0.0
2019-Oct-08 14:30N 40°40' W 074°04'0 0.0
2019-Oct-08 14:00N 40°40' W 074°04'0 0.0
2019-Oct-08 13:30N 40°40' W 074°04'0 0.4
2019-Oct-08 13:00N 40°40' W 074°04'3 6.2
2019-Oct-08 12:30N 40°37' W 074°03'4 8.4
2019-Oct-08 12:00N 40°33' W 074°01'4 8.4
2019-Oct-08 11:30N 40°30' W 073°57'49 6.9
2019-Oct-08 04:27N 39°43' W 073°44'3 6.8
2019-Oct-08 03:57N 39°40' W 073°46'4 7.0
2019-Oct-08 03:23N 39°36' W 073°49'3 6.9
2019-Oct-08 02:59N 39°34' W 073°51'3 7.1
2019-Oct-08 02:30N 39°31' W 073°54'4 7.0
2019-Oct-08 01:55N 39°28' W 073°57'4 7.1
2019-Oct-08 01:25N 39°25' W 073°60'4 7.1
2019-Oct-08 00:51N 39°22' W 074°03'2 6.9
2019-Oct-08 00:30N 39°20' W 074°05'17 4.4
2019-Oct-07 20:44N 39°07' W 074°18'4 0.7
2019-Oct-07 14:11N 39°03' W 074°15'1 4.0
2019-Oct-07 14:00N 39°03' W 074°14'1 0.9
2019-Oct-07 13:16N 39°03' W 074°15'2 3.8
2019-Oct-07 12:45N 39°04' W 074°17'3 0.9
2019-Oct-07 09:55N 39°06' W 074°20'  
Track history (hours):
 
Tides and Currents Weather Stations Pressure Air Temp Water Temp Dewpoint Dewpoint Depression Visibility Wind Speed Wind Dir Waves Ship Positions

Oceanographic research ship Charles Darwin (UK)

Detailed information on ship capabilities available from University of Delaware's Ocean Information Center.

Last reported at 2019-Oct-16 12:30 UTC. Time now 2019-Oct-18 23:38 UTC.
Position N 39°12' W 074°13'.

Length 70 m; draft 5.7 m.

Type: Cargo ship. MMSI: 235011460.

Date/timePositionNaut miles runAvg speedWind from/ knotsBaromVisibWave heightAir tempDewpointWater temp
2019-Oct-16 12:30N 39°12' W 074°13'4 0.1
2019-Oct-15 09:22N 39°10' W 074°10'1 3.7
2019-Oct-15 09:00N 39°09' W 074°09'3 1.4
2019-Oct-15 06:30N 39°12' W 074°11'2 2.9
2019-Oct-15 05:53N 39°13' W 074°13'1 1.3
2019-Oct-15 05:29N 39°13' W 074°12'1 2.9
2019-Oct-15 05:00N 39°12' W 074°11'2 3.0
2019-Oct-15 04:30N 39°11' W 074°10'1 2.9
2019-Oct-15 04:00N 39°10' W 074°08'1 2.9
2019-Oct-15 03:30N 39°09' W 074°07'1 2.2
2019-Oct-15 02:59N 39°08' W 074°06'1 2.1
2019-Oct-15 02:30N 39°08' W 074°08'1 1.9
2019-Oct-15 02:00N 39°09' W 074°08'1 2.2
2019-Oct-15 01:30N 39°10' W 074°10'1 3.0
2019-Oct-15 01:00N 39°11' W 074°11'4 2.2
2019-Oct-14 23:21N 39°13' W 074°14'1 3.5
2019-Oct-14 22:59N 39°12' W 074°13'22 1.2
2019-Oct-14 04:45N 39°31' W 073°59'3 8.9
2019-Oct-14 04:26N 39°34' W 073°57'4 9.1
2019-Oct-14 04:00N 39°37' W 073°55'5 9.4
2019-Oct-14 03:30N 39°41' W 073°52'5 9.3
2019-Oct-14 03:00N 39°46' W 073°50'5 9.3
2019-Oct-14 02:30N 39°50' W 073°49'49 8.0
2019-Oct-13 20:25N 40°38' W 074°03'2 0.1
2019-Oct-13 06:33N 40°40' W 074°04'0 0.1
2019-Oct-13 06:27N 40°40' W 074°04'0 0.0
2019-Oct-13 06:00N 40°40' W 074°04'0 0.0
2019-Oct-13 05:27N 40°40' W 074°04'0 0.0
2019-Oct-13 05:00N 40°40' W 074°04'0 0.0
2019-Oct-13 04:30N 40°40' W 074°04'0 0.0
2019-Oct-13 03:57N 40°40' W 074°04'0 0.0
2019-Oct-13 03:30N 40°40' W 074°04'0 0.0
2019-Oct-13 03:00N 40°40' W 074°04'0 0.0
2019-Oct-13 02:30N 40°40' W 074°04'0 0.0
2019-Oct-13 02:00N 40°40' W 074°04'0 0.0
2019-Oct-13 01:30N 40°40' W 074°04'0 0.0
2019-Oct-13 01:00N 40°40' W 074°04'0 0.0
2019-Oct-13 00:30N 40°40' W 074°04'0 0.0
2019-Oct-13 00:00N 40°40' W 074°04'0 0.0
2019-Oct-12 23:24N 40°40' W 074°04'0 0.0
2019-Oct-12 22:36N 40°40' W 074°04'0 0.0
2019-Oct-12 08:27N 40°40' W 074°04'0 0.0
2019-Oct-12 08:00N 40°40' W 074°04'0 0.0
2019-Oct-12 07:30N 40°40' W 074°04'0 0.0
2019-Oct-12 07:00N 40°40' W 074°04'0 0.0
2019-Oct-12 06:30N 40°40' W 074°04'0 0.0
2019-Oct-12 05:57N 40°40' W 074°04'0 0.0
2019-Oct-12 05:30N 40°40' W 074°04'0 0.0
2019-Oct-12 05:00N 40°40' W 074°04'0 0.0
2019-Oct-12 04:30N 40°40' W 074°04'0 0.0
2019-Oct-12 04:00N 40°40' W 074°04'0 0.0
2019-Oct-12 03:30N 40°40' W 074°04'0 0.0
2019-Oct-12 03:00N 40°40' W 074°04'0 0.0
2019-Oct-12 02:30N 40°40' W 074°04'0 0.0
2019-Oct-12 02:00N 40°40' W 074°04'0 0.0
2019-Oct-12 01:30N 40°40' W 074°04'0 0.0
2019-Oct-12 01:00N 40°40' W 074°04'0 0.0
2019-Oct-12 00:30N 40°40' W 074°04'0 0.0
2019-Oct-11 23:57N 40°40' W 074°04'0 0.0
2019-Oct-11 23:30N 40°40' W 074°04'0 0.0
2019-Oct-11 23:00N 40°40' W 074°04'0 0.0
2019-Oct-11 22:27N 40°40' W 074°04'0 0.0
2019-Oct-11 22:00N 40°40' W 074°04'0 0.0
2019-Oct-11 21:30N 40°40' W 074°04'0 0.0
2019-Oct-11 20:54N 40°40' W 074°04'0 0.0
2019-Oct-11 20:30N 40°40' W 074°04'0 0.0
2019-Oct-11 20:00N 40°40' W 074°04'0 0.0
2019-Oct-11 19:30N 40°40' W 074°04'0 0.0
2019-Oct-11 19:00N 40°40' W 074°04'0 0.0
2019-Oct-11 18:30N 40°40' W 074°04'0 0.0
2019-Oct-11 18:00N 40°40' W 074°04'0 0.0
2019-Oct-11 17:30N 40°40' W 074°04'0 0.0
2019-Oct-11 17:00N 40°40' W 074°04'0 0.0
2019-Oct-11 16:27N 40°40' W 074°04'0 0.0
2019-Oct-11 16:00N 40°40' W 074°04'0 0.0
2019-Oct-11 15:30N 40°40' W 074°04'0 0.0
2019-Oct-11 15:00N 40°40' W 074°04'0 0.0
2019-Oct-11 14:30N 40°40' W 074°04'0 0.0
2019-Oct-11 14:00N 40°40' W 074°04'0 0.0
2019-Oct-11 13:30N 40°40' W 074°04'0 0.0
2019-Oct-11 12:57N 40°40' W 074°04'0 0.0
2019-Oct-11 12:30N 40°40' W 074°04'0 0.0
2019-Oct-11 12:00N 40°40' W 074°04'0 0.0
2019-Oct-11 11:30N 40°40' W 074°04'0 0.0
2019-Oct-11 11:00N 40°40' W 074°04'0 0.0
2019-Oct-11 10:30N 40°40' W 074°04'0 0.0
2019-Oct-11 10:00N 40°40' W 074°04'0 0.0
2019-Oct-11 09:30N 40°40' W 074°04'0 0.0
2019-Oct-11 09:00N 40°40' W 074°04'0 0.0
2019-Oct-11 08:30N 40°40' W 074°04'0 0.0
2019-Oct-11 08:00N 40°40' W 074°04'0 0.0
2019-Oct-11 07:30N 40°40' W 074°04'0 0.0
2019-Oct-11 07:00N 40°40' W 074°04'0 0.0
2019-Oct-11 06:30N 40°40' W 074°04'0 0.0
2019-Oct-11 06:00N 40°40' W 074°04'0 0.0
2019-Oct-11 05:30N 40°40' W 074°04'0 0.0
2019-Oct-11 05:00N 40°40' W 074°04'0 0.0
2019-Oct-11 04:30N 40°40' W 074°04'0 0.0
2019-Oct-11 04:00N 40°40' W 074°04'0 0.0
2019-Oct-11 03:27N 40°40' W 074°04'0 0.0
2019-Oct-11 03:00N 40°40' W 074°04'0 0.0
2019-Oct-11 02:30N 40°40' W 074°04'0 0.0
2019-Oct-11 02:00N 40°40' W 074°04'0 0.0
2019-Oct-11 01:30N 40°40' W 074°04'0 0.0
2019-Oct-11 01:00N 40°40' W 074°04'0 0.0
2019-Oct-11 00:30N 40°40' W 074°04'0 0.0
2019-Oct-11 00:00N 40°40' W 074°04'0 0.0
2019-Oct-10 23:30N 40°40' W 074°04'0 0.0
2019-Oct-10 23:00N 40°40' W 074°04'0 0.0
2019-Oct-10 22:30N 40°40' W 074°04'0 0.0
2019-Oct-10 22:00N 40°40' W 074°04'0 0.0
2019-Oct-10 21:27N 40°40' W 074°04'0 0.0
2019-Oct-10 21:00N 40°40' W 074°04'0 0.0
2019-Oct-10 20:30N 40°40' W 074°04'0 0.0
2019-Oct-10 20:00N 40°40' W 074°04'0 0.0
2019-Oct-10 19:30N 40°40' W 074°04'0 0.0
2019-Oct-10 18:57N 40°40' W 074°04'0 0.0
2019-Oct-10 18:30N 40°40' W 074°04'0 0.0
2019-Oct-10 18:00N 40°40' W 074°04'0 0.0
2019-Oct-10 17:27N 40°40' W 074°04'0 0.0
2019-Oct-10 17:00N 40°40' W 074°04'0 0.0
2019-Oct-10 16:30N 40°40' W 074°04'0 0.0
2019-Oct-10 16:00N 40°40' W 074°04'0 0.0
2019-Oct-10 15:24N 40°40' W 074°04'0 0.0
2019-Oct-10 15:00N 40°40' W 074°04'0 0.0
2019-Oct-10 14:30N 40°40' W 074°04'0 0.0
2019-Oct-10 14:00N 40°40' W 074°04'0 0.0
2019-Oct-10 13:30N 40°40' W 074°04'0 0.0
2019-Oct-10 13:00N 40°40' W 074°04'0 0.0
2019-Oct-10 12:30N 40°40' W 074°04'0 0.0
2019-Oct-10 11:57N 40°40' W 074°04'0 0.0
2019-Oct-10 11:30N 40°40' W 074°04'0 0.0
2019-Oct-10 11:00N 40°40' W 074°04'0 0.0
2019-Oct-10 10:30N 40°40' W 074°04'0 0.0
2019-Oct-10 10:00N 40°40' W 074°04'0 0.0
2019-Oct-10 09:27N 40°40' W 074°04'0 0.0
2019-Oct-10 09:00N 40°40' W 074°04'0 0.0
2019-Oct-10 08:30N 40°40' W 074°04'0 0.0
2019-Oct-10 08:00N 40°40' W 074°04'0 0.0
2019-Oct-10 07:30N 40°40' W 074°04'0 0.0
2019-Oct-10 07:00N 40°40' W 074°04'0 0.0
2019-Oct-10 06:30N 40°40' W 074°04'0 0.0
2019-Oct-10 06:00N 40°40' W 074°04'0 0.0
2019-Oct-10 05:30N 40°40' W 074°04'0 0.0
2019-Oct-10 05:00N 40°40' W 074°04'0 0.0
2019-Oct-10 04:30N 40°40' W 074°04'0 0.0
2019-Oct-10 04:00N 40°40' W 074°04'0 0.0
2019-Oct-10 03:30N 40°40' W 074°04'0 0.0
2019-Oct-10 03:00N 40°40' W 074°04'0 0.0
2019-Oct-10 02:30N 40°40' W 074°04'0 0.0
2019-Oct-10 02:00N 40°40' W 074°04'0 0.0
2019-Oct-10 01:30N 40°40' W 074°04'0 0.0
2019-Oct-10 01:00N 40°40' W 074°04'0 0.0
2019-Oct-10 00:24N 40°40' W 074°04'0 0.0
2019-Oct-10 00:00N 40°40' W 074°04'0 0.0
2019-Oct-09 23:30N 40°40' W 074°04'0 0.0
2019-Oct-09 23:00N 40°40' W 074°04'0 0.0
2019-Oct-09 22:30N 40°40' W 074°04'0 0.0
2019-Oct-09 22:00N 40°40' W 074°04'0 0.0
2019-Oct-09 21:30N 40°40' W 074°04'0 0.0
2019-Oct-09 21:00N 40°40' W 074°04'0 0.0
2019-Oct-09 20:27N 40°40' W 074°04'0 0.0
2019-Oct-09 20:00N 40°40' W 074°04'0 0.0
2019-Oct-09 19:30N 40°40' W 074°04'0 0.1
2019-Oct-09 19:00N 40°40' W 074°04'0 0.1
2019-Oct-09 18:30N 40°40' W 074°04'0 0.0
2019-Oct-09 18:00N 40°40' W 074°04'0 0.0
2019-Oct-09 17:27N 40°40' W 074°04'0 0.0
2019-Oct-09 17:00N 40°40' W 074°04'0 0.0
2019-Oct-09 16:30N 40°40' W 074°04'0 0.0
2019-Oct-09 16:00N 40°40' W 074°04'0 0.0
2019-Oct-09 15:30N 40°40' W 074°04'0 0.0
2019-Oct-09 15:00N 40°40' W 074°04'0 0.0
2019-Oct-09 14:30N 40°40' W 074°04'0 0.0
2019-Oct-09 14:00N 40°40' W 074°04'0 0.0
2019-Oct-09 13:30N 40°40' W 074°04'0 0.0
2019-Oct-09 13:00N 40°40' W 074°04'0 0.0
2019-Oct-09 12:27N 40°40' W 074°04'0 0.0
2019-Oct-09 12:00N 40°40' W 074°04'0 0.0
2019-Oct-09 11:30N 40°40' W 074°04'0 0.0
2019-Oct-09 11:00N 40°40' W 074°04'0 0.0
2019-Oct-09 10:30N 40°40' W 074°04'0 0.0
2019-Oct-09 10:00N 40°40' W 074°04'0 0.0
2019-Oct-09 09:30N 40°40' W 074°04'0 0.0
2019-Oct-09 09:00N 40°40' W 074°04'0 0.0
2019-Oct-09 08:30N 40°40' W 074°04'0 0.0
2019-Oct-09 08:00N 40°40' W 074°04'0 0.0
2019-Oct-09 07:30N 40°40' W 074°04'0 0.0
2019-Oct-09 07:00N 40°40' W 074°04'0 0.0
2019-Oct-09 06:30N 40°40' W 074°04'0 0.0
2019-Oct-09 06:00N 40°40' W 074°04'0 0.0
2019-Oct-09 05:30N 40°40' W 074°04'0 0.0
2019-Oct-09 05:00N 40°40' W 074°04'0 0.0
2019-Oct-09 04:30N 40°40' W 074°04'0 0.0
2019-Oct-09 04:00N 40°40' W 074°04'0 0.0
2019-Oct-09 03:30N 40°40' W 074°04'0 0.0
2019-Oct-09 03:00N 40°40' W 074°04'0 0.0
2019-Oct-09 02:30N 40°40' W 074°04'0 0.0
2019-Oct-09 02:00N 40°40' W 074°04'0 0.0
2019-Oct-09 01:30N 40°40' W 074°04'0 0.0
2019-Oct-09 01:00N 40°40' W 074°04'0 0.0
2019-Oct-09 00:30N 40°40' W 074°04'0 0.0
2019-Oct-09 00:00N 40°40' W 074°04'0 0.0
2019-Oct-08 23:30N 40°40' W 074°04'0 0.0
2019-Oct-08 23:00N 40°40' W 074°04'0 0.0
2019-Oct-08 22:30N 40°40' W 074°04'0 0.0
2019-Oct-08 21:54N 40°40' W 074°04'0 0.0
2019-Oct-08 21:30N 40°40' W 074°04'0 0.0
2019-Oct-08 21:00N 40°40' W 074°04'0 0.0
2019-Oct-08 20:30N 40°40' W 074°04'0 0.0
2019-Oct-08 20:00N 40°40' W 074°04'0 0.0
2019-Oct-08 19:30N 40°40' W 074°04'0 0.0
2019-Oct-08 19:00N 40°40' W 074°04'0 0.0
2019-Oct-08 18:27N 40°40' W 074°04'0 0.0
2019-Oct-08 18:00N 40°40' W 074°04'0 0.0
2019-Oct-08 17:30N 40°40' W 074°04'0 0.0
2019-Oct-08 17:00N 40°40' W 074°04'0 0.0
2019-Oct-08 16:27N 40°40' W 074°04'0 0.0
2019-Oct-08 15:57N 40°40' W 074°04'0 0.0
2019-Oct-08 15:30N 40°40' W 074°04'0 0.0
2019-Oct-08 15:00N 40°40' W 074°04'0 0.0
2019-Oct-08 14:30N 40°40' W 074°04'0 0.0
2019-Oct-08 14:00N 40°40' W 074°04'0 0.0
2019-Oct-08 13:30N 40°40' W 074°04'0 0.4
2019-Oct-08 13:00N 40°40' W 074°04'3 6.2
2019-Oct-08 12:30N 40°37' W 074°03'4 8.4
2019-Oct-08 12:00N 40°33' W 074°01'4 8.4
2019-Oct-08 11:30N 40°30' W 073°57'49 6.9
2019-Oct-08 04:27N 39°43' W 073°44'3 6.8
2019-Oct-08 03:57N 39°40' W 073°46'4 7.0
2019-Oct-08 03:23N 39°36' W 073°49'3 6.9
2019-Oct-08 02:59N 39°34' W 073°51'3 7.1
2019-Oct-08 02:30N 39°31' W 073°54'4 7.0
2019-Oct-08 01:55N 39°28' W 073°57'4 7.1
2019-Oct-08 01:25N 39°25' W 073°60'4 7.1
2019-Oct-08 00:51N 39°22' W 074°03'2 6.9
2019-Oct-08 00:30N 39°20' W 074°05'17 4.4
2019-Oct-07 20:44N 39°07' W 074°18'4 0.7
2019-Oct-07 14:11N 39°03' W 074°15'1 4.0
2019-Oct-07 14:00N 39°03' W 074°14'1 0.9
2019-Oct-07 13:16N 39°03' W 074°15'2 3.8
2019-Oct-07 12:45N 39°04' W 074°17'3 0.9
2019-Oct-07 09:55N 39°06' W 074°20'  

Dump ship's entire track history